sensor_id;sensor_type;location;lat;lon;timestamp;P1;durP1;ratioP1;P2;durP2;ratioP2
45842;SDS011;31563;51.744;8.252;2023-04-20T00:01:54;3.10;;;1.93;;
45842;SDS011;31563;51.744;8.252;2023-04-20T00:04:24;1.63;;;1.40;;
45842;SDS011;31563;51.744;8.252;2023-04-20T00:06:52;3.08;;;1.73;;
45842;SDS011;31563;51.744;8.252;2023-04-20T00:09:22;2.92;;;1.73;;
45842;SDS011;31563;51.744;8.252;2023-04-20T00:11:50;3.58;;;2.20;;
45842;SDS011;31563;51.744;8.252;2023-04-20T00:14:18;2.28;;;1.83;;
45842;SDS011;31563;51.744;8.252;2023-04-20T00:16:47;2.53;;;1.55;;
45842;SDS011;31563;51.744;8.252;2023-04-20T00:19:16;3.40;;;1.58;;
45842;SDS011;31563;51.744;8.252;2023-04-20T00:21:46;1.85;;;1.50;;
45842;SDS011;31563;51.744;8.252;2023-04-20T00:24:14;2.85;;;1.60;;
45842;SDS011;31563;51.744;8.252;2023-04-20T00:26:42;1.98;;;1.67;;
45842;SDS011;31563;51.744;8.252;2023-04-20T00:29:10;1.88;;;1.60;;
45842;SDS011;31563;51.744;8.252;2023-04-20T00:31:38;2.13;;;1.88;;
45842;SDS011;31563;51.744;8.252;2023-04-20T00:34:06;2.97;;;1.65;;
45842;SDS011;31563;51.744;8.252;2023-04-20T00:36:36;1.98;;;1.75;;
45842;SDS011;31563;51.744;8.252;2023-04-20T00:39:04;2.30;;;1.67;;
45842;SDS011;31563;51.744;8.252;2023-04-20T00:41:32;2.72;;;1.58;;
45842;SDS011;31563;51.744;8.252;2023-04-20T00:44:00;1.95;;;1.38;;
45842;SDS011;31563;51.744;8.252;2023-04-20T00:46:28;2.15;;;1.50;;
45842;SDS011;31563;51.744;8.252;2023-04-20T00:48:56;1.60;;;1.40;;
45842;SDS011;31563;51.744;8.252;2023-04-20T00:51:25;1.85;;;1.38;;
45842;SDS011;31563;51.744;8.252;2023-04-20T00:53:56;3.20;;;1.30;;
45842;SDS011;31563;51.744;8.252;2023-04-20T00:58:52;2.13;;;1.20;;
45842;SDS011;31563;51.744;8.252;2023-04-20T01:01:21;2.03;;;1.33;;
45842;SDS011;31563;51.744;8.252;2023-04-20T01:03:49;2.03;;;1.48;;
45842;SDS011;31563;51.744;8.252;2023-04-20T01:06:17;2.70;;;1.52;;
45842;SDS011;31563;51.744;8.252;2023-04-20T01:08:46;2.00;;;1.50;;
45842;SDS011;31563;51.744;8.252;2023-04-20T01:11:17;2.60;;;1.73;;
45842;SDS011;31563;51.744;8.252;2023-04-20T01:16:14;2.05;;;1.45;;
45842;SDS011;31563;51.744;8.252;2023-04-20T01:18:43;1.90;;;1.63;;
45842;SDS011;31563;51.744;8.252;2023-04-20T01:23:43;2.33;;;1.63;;
45842;SDS011;31563;51.744;8.252;2023-04-20T01:26:12;3.10;;;1.70;;
45842;SDS011;31563;51.744;8.252;2023-04-20T01:28:42;2.85;;;1.85;;
45842;SDS011;31563;51.744;8.252;2023-04-20T01:31:10;1.98;;;1.70;;
45842;SDS011;31563;51.744;8.252;2023-04-20T01:33:39;3.10;;;1.67;;
45842;SDS011;31563;51.744;8.252;2023-04-20T01:36:08;1.65;;;1.55;;
45842;SDS011;31563;51.744;8.252;2023-04-20T01:38:37;1.67;;;1.00;;
45842;SDS011;31563;51.744;8.252;2023-04-20T01:41:07;2.53;;;1.58;;
45842;SDS011;31563;51.744;8.252;2023-04-20T01:43:35;2.05;;;1.70;;
45842;SDS011;31563;51.744;8.252;2023-04-20T01:46:04;2.20;;;1.67;;
45842;SDS011;31563;51.744;8.252;2023-04-20T01:48:33;1.50;;;1.40;;
45842;SDS011;31563;51.744;8.252;2023-04-20T01:51:01;1.58;;;1.33;;
45842;SDS011;31563;51.744;8.252;2023-04-20T01:53:29;1.65;;;1.20;;
45842;SDS011;31563;51.744;8.252;2023-04-20T01:55:58;2.72;;;2.13;;
45842;SDS011;31563;51.744;8.252;2023-04-20T01:58:27;1.92;;;1.10;;
45842;SDS011;31563;51.744;8.252;2023-04-20T02:00:55;1.90;;;1.38;;
45842;SDS011;31563;51.744;8.252;2023-04-20T02:03:23;1.88;;;1.20;;
45842;SDS011;31563;51.744;8.252;2023-04-20T02:05:52;2.70;;;1.50;;
45842;SDS011;31563;51.744;8.252;2023-04-20T02:08:20;1.80;;;1.58;;
45842;SDS011;31563;51.744;8.252;2023-04-20T02:10:48;1.90;;;1.48;;
45842;SDS011;31563;51.744;8.252;2023-04-20T02:13:16;2.08;;;1.42;;
45842;SDS011;31563;51.744;8.252;2023-04-20T02:15:46;3.15;;;1.60;;
45842;SDS011;31563;51.744;8.252;2023-04-20T02:18:14;1.80;;;1.40;;
45842;SDS011;31563;51.744;8.252;2023-04-20T02:20:43;1.42;;;1.33;;
45842;SDS011;31563;51.744;8.252;2023-04-20T02:23:11;2.30;;;1.50;;
45842;SDS011;31563;51.744;8.252;2023-04-20T02:25:40;2.53;;;1.38;;
45842;SDS011;31563;51.744;8.252;2023-04-20T02:28:08;2.30;;;1.70;;
45842;SDS011;31563;51.744;8.252;2023-04-20T02:30:36;1.85;;;1.40;;
45842;SDS011;31563;51.744;8.252;2023-04-20T02:33:05;2.13;;;1.45;;
45842;SDS011;31563;51.744;8.252;2023-04-20T02:35:34;2.20;;;1.52;;
45842;SDS011;31563;51.744;8.252;2023-04-20T02:38:03;1.40;;;1.30;;
45842;SDS011;31563;51.744;8.252;2023-04-20T02:40:31;2.40;;;1.47;;
45842;SDS011;31563;51.744;8.252;2023-04-20T02:42:59;1.83;;;1.50;;
45842;SDS011;31563;51.744;8.252;2023-04-20T02:45:27;1.50;;;1.20;;
45842;SDS011;31563;51.744;8.252;2023-04-20T02:47:56;1.60;;;1.23;;
45842;SDS011;31563;51.744;8.252;2023-04-20T02:50:25;2.28;;;1.40;;
45842;SDS011;31563;51.744;8.252;2023-04-20T02:52:53;1.70;;;1.40;;
45842;SDS011;31563;51.744;8.252;2023-04-20T02:55:21;2.08;;;1.45;;
45842;SDS011;31563;51.744;8.252;2023-04-20T02:57:50;2.28;;;1.52;;
45842;SDS011;31563;51.744;8.252;2023-04-20T03:00:18;1.58;;;1.27;;
45842;SDS011;31563;51.744;8.252;2023-04-20T03:02:46;1.60;;;1.33;;
45842;SDS011;31563;51.744;8.252;2023-04-20T03:05:15;1.80;;;1.50;;
45842;SDS011;31563;51.744;8.252;2023-04-20T03:07:44;1.65;;;1.50;;
45842;SDS011;31563;51.744;8.252;2023-04-20T03:10:12;2.03;;;1.35;;
45842;SDS011;31563;51.744;8.252;2023-04-20T03:12:40;1.50;;;1.40;;
45842;SDS011;31563;51.744;8.252;2023-04-20T03:15:09;1.98;;;1.50;;
45842;SDS011;31563;51.744;8.252;2023-04-20T03:17:37;1.52;;;1.40;;
45842;SDS011;31563;51.744;8.252;2023-04-20T03:20:06;2.33;;;1.52;;
45842;SDS011;31563;51.744;8.252;2023-04-20T03:22:35;1.40;;;1.30;;
45842;SDS011;31563;51.744;8.252;2023-04-20T03:25:05;2.22;;;1.30;;
45842;SDS011;31563;51.744;8.252;2023-04-20T03:27:34;1.27;;;1.17;;
45842;SDS011;31563;51.744;8.252;2023-04-20T03:30:02;2.40;;;1.23;;
45842;SDS011;31563;51.744;8.252;2023-04-20T03:32:31;2.72;;;1.33;;
45842;SDS011;31563;51.744;8.252;2023-04-20T03:34:59;1.90;;;1.48;;
45842;SDS011;31563;51.744;8.252;2023-04-20T03:37:27;1.42;;;1.23;;
45842;SDS011;31563;51.744;8.252;2023-04-20T03:39:56;1.50;;;1.23;;
45842;SDS011;31563;51.744;8.252;2023-04-20T03:42:25;2.05;;;1.17;;
45842;SDS011;31563;51.744;8.252;2023-04-20T03:44:53;1.60;;;1.00;;
45842;SDS011;31563;51.744;8.252;2023-04-20T03:47:22;1.58;;;1.20;;
45842;SDS011;31563;51.744;8.252;2023-04-20T03:49:50;1.38;;;1.10;;
45842;SDS011;31563;51.744;8.252;2023-04-20T03:52:18;1.70;;;1.25;;
45842;SDS011;31563;51.744;8.252;2023-04-20T03:54:46;1.60;;;1.20;;
45842;SDS011;31563;51.744;8.252;2023-04-20T03:57:14;1.42;;;1.17;;
45842;SDS011;31563;51.744;8.252;2023-04-20T03:59:44;1.95;;;1.17;;
45842;SDS011;31563;51.744;8.252;2023-04-20T04:02:12;1.58;;;1.13;;
45842;SDS011;31563;51.744;8.252;2023-04-20T04:04:41;1.70;;;1.40;;
45842;SDS011;31563;51.744;8.252;2023-04-20T04:07:10;1.42;;;1.20;;
45842;SDS011;31563;51.744;8.252;2023-04-20T04:09:38;1.60;;;1.35;;
45842;SDS011;31563;51.744;8.252;2023-04-20T04:12:07;2.13;;;1.20;;
45842;SDS011;31563;51.744;8.252;2023-04-20T04:14:35;1.30;;;1.08;;
45842;SDS011;31563;51.744;8.252;2023-04-20T04:17:04;1.40;;;1.10;;
45842;SDS011;31563;51.744;8.252;2023-04-20T04:19:33;2.63;;;1.38;;
45842;SDS011;31563;51.744;8.252;2023-04-20T04:22:01;1.48;;;0.90;;
45842;SDS011;31563;51.744;8.252;2023-04-20T04:24:29;1.52;;;1.17;;
45842;SDS011;31563;51.744;8.252;2023-04-20T04:26:58;1.95;;;1.50;;
45842;SDS011;31563;51.744;8.252;2023-04-20T04:29:30;1.40;;;1.10;;
45842;SDS011;31563;51.744;8.252;2023-04-20T04:32:01;1.35;;;1.20;;
45842;SDS011;31563;51.744;8.252;2023-04-20T04:34:31;2.03;;;1.83;;
45842;SDS011;31563;51.744;8.252;2023-04-20T04:37:00;3.22;;;1.90;;
45842;SDS011;31563;51.744;8.252;2023-04-20T04:39:28;4.25;;;2.10;;
45842;SDS011;31563;51.744;8.252;2023-04-20T04:41:56;4.20;;;1.92;;
45842;SDS011;31563;51.744;8.252;2023-04-20T04:44:24;2.92;;;2.15;;
45842;SDS011;31563;51.744;8.252;2023-04-20T04:46:54;2.95;;;2.08;;
45842;SDS011;31563;51.744;8.252;2023-04-20T04:49:22;3.80;;;2.17;;
45842;SDS011;31563;51.744;8.252;2023-04-20T04:51:53;4.07;;;2.33;;
45842;SDS011;31563;51.744;8.252;2023-04-20T04:54:21;3.75;;;2.33;;
45842;SDS011;31563;51.744;8.252;2023-04-20T04:56:49;3.70;;;2.45;;
45842;SDS011;31563;51.744;8.252;2023-04-20T04:59:17;3.05;;;2.70;;
45842;SDS011;31563;51.744;8.252;2023-04-20T05:01:46;2.92;;;2.20;;
45842;SDS011;31563;51.744;8.252;2023-04-20T05:04:14;4.22;;;2.90;;
45842;SDS011;31563;51.744;8.252;2023-04-20T05:06:42;2.83;;;2.35;;
45842;SDS011;31563;51.744;8.252;2023-04-20T05:09:12;4.13;;;2.85;;
45842;SDS011;31563;51.744;8.252;2023-04-20T05:11:40;4.90;;;2.85;;
45842;SDS011;31563;51.744;8.252;2023-04-20T05:14:08;2.95;;;2.60;;
45842;SDS011;31563;51.744;8.252;2023-04-20T05:16:36;4.40;;;2.60;;
45842;SDS011;31563;51.744;8.252;2023-04-20T05:19:04;5.13;;;2.97;;
45842;SDS011;31563;51.744;8.252;2023-04-20T05:21:32;3.50;;;2.55;;
45842;SDS011;31563;51.744;8.252;2023-04-20T05:24:01;3.65;;;2.72;;
45842;SDS011;31563;51.744;8.252;2023-04-20T05:26:31;3.38;;;2.80;;
45842;SDS011;31563;51.744;8.252;2023-04-20T05:28:59;7.07;;;3.10;;
45842;SDS011;31563;51.744;8.252;2023-04-20T05:31:27;3.95;;;3.00;;
45842;SDS011;31563;51.744;8.252;2023-04-20T05:33:56;4.93;;;3.07;;
45842;SDS011;31563;51.744;8.252;2023-04-20T05:36:24;4.30;;;3.03;;
45842;SDS011;31563;51.744;8.252;2023-04-20T05:38:52;3.95;;;3.00;;
45842;SDS011;31563;51.744;8.252;2023-04-20T05:41:20;3.28;;;2.88;;
45842;SDS011;31563;51.744;8.252;2023-04-20T05:43:53;3.88;;;3.20;;
45842;SDS011;31563;51.744;8.252;2023-04-20T05:46:22;4.28;;;3.17;;
45842;SDS011;31563;51.744;8.252;2023-04-20T05:48:50;6.82;;;3.72;;
45842;SDS011;31563;51.744;8.252;2023-04-20T05:51:18;4.90;;;3.78;;
45842;SDS011;31563;51.744;8.252;2023-04-20T05:53:47;4.45;;;3.65;;
45842;SDS011;31563;51.744;8.252;2023-04-20T05:56:15;3.53;;;3.13;;
45842;SDS011;31563;51.744;8.252;2023-04-20T05:58:43;3.63;;;3.10;;
45842;SDS011;31563;51.744;8.252;2023-04-20T06:01:13;3.42;;;2.88;;
45842;SDS011;31563;51.744;8.252;2023-04-20T06:03:42;3.85;;;2.60;;
45842;SDS011;31563;51.744;8.252;2023-04-20T06:06:10;4.20;;;2.78;;
45842;SDS011;31563;51.744;8.252;2023-04-20T06:08:41;3.60;;;2.55;;
45842;SDS011;31563;51.744;8.252;2023-04-20T06:11:09;3.88;;;1.85;;
45842;SDS011;31563;51.744;8.252;2023-04-20T06:13:38;3.05;;;2.20;;
45842;SDS011;31563;51.744;8.252;2023-04-20T06:16:06;3.85;;;1.73;;
45842;SDS011;31563;51.744;8.252;2023-04-20T06:18:37;2.95;;;1.65;;
45842;SDS011;31563;51.744;8.252;2023-04-20T06:21:08;3.40;;;1.90;;
45842;SDS011;31563;51.744;8.252;2023-04-20T06:23:36;3.65;;;2.30;;
45842;SDS011;31563;51.744;8.252;2023-04-20T06:26:04;3.33;;;1.88;;
45842;SDS011;31563;51.744;8.252;2023-04-20T06:28:34;2.05;;;1.60;;
45842;SDS011;31563;51.744;8.252;2023-04-20T06:31:02;2.58;;;1.67;;
45842;SDS011;31563;51.744;8.252;2023-04-20T06:33:31;2.00;;;1.45;;
45842;SDS011;31563;51.744;8.252;2023-04-20T06:36:01;2.70;;;1.85;;
45842;SDS011;31563;51.744;8.252;2023-04-20T06:38:29;2.28;;;1.48;;
45842;SDS011;31563;51.744;8.252;2023-04-20T06:40:57;2.30;;;1.52;;
45842;SDS011;31563;51.744;8.252;2023-04-20T06:43:27;2.45;;;1.40;;
45842;SDS011;31563;51.744;8.252;2023-04-20T06:45:56;2.03;;;1.52;;
45842;SDS011;31563;51.744;8.252;2023-04-20T06:48:24;2.20;;;1.50;;
45842;SDS011;31563;51.744;8.252;2023-04-20T06:50:58;2.72;;;1.60;;
45842;SDS011;31563;51.744;8.252;2023-04-20T06:53:27;2.38;;;1.80;;
45842;SDS011;31563;51.744;8.252;2023-04-20T06:55:56;2.03;;;1.60;;
45842;SDS011;31563;51.744;8.252;2023-04-20T06:58:24;3.42;;;2.80;;
45842;SDS011;31563;51.744;8.252;2023-04-20T07:00:52;3.35;;;2.40;;
45842;SDS011;31563;51.744;8.252;2023-04-20T07:03:20;4.20;;;2.80;;
45842;SDS011;31563;51.744;8.252;2023-04-20T07:05:49;5.65;;;2.17;;
45842;SDS011;31563;51.744;8.252;2023-04-20T07:08:17;2.95;;;2.30;;
45842;SDS011;31563;51.744;8.252;2023-04-20T07:10:47;2.90;;;1.80;;
45842;SDS011;31563;51.744;8.252;2023-04-20T07:13:15;1.73;;;1.60;;
45842;SDS011;31563;51.744;8.252;2023-04-20T07:15:43;4.25;;;2.40;;
45842;SDS011;31563;51.744;8.252;2023-04-20T07:18:12;6.38;;;3.25;;
45842;SDS011;31563;51.744;8.252;2023-04-20T07:20:40;4.32;;;3.92;;
45842;SDS011;31563;51.744;8.252;2023-04-20T07:23:08;6.05;;;3.80;;
45842;SDS011;31563;51.744;8.252;2023-04-20T07:25:36;5.93;;;3.30;;
45842;SDS011;31563;51.744;8.252;2023-04-20T07:28:06;9.32;;;3.30;;
45842;SDS011;31563;51.744;8.252;2023-04-20T07:30:34;4.57;;;3.30;;
45842;SDS011;31563;51.744;8.252;2023-04-20T07:33:02;3.85;;;2.60;;
45842;SDS011;31563;51.744;8.252;2023-04-20T07:35:31;2.70;;;2.10;;
45842;SDS011;31563;51.744;8.252;2023-04-20T07:37:59;3.65;;;2.40;;
45842;SDS011;31563;51.744;8.252;2023-04-20T07:40:27;4.60;;;2.15;;
45842;SDS011;31563;51.744;8.252;2023-04-20T07:42:55;5.13;;;2.20;;
45842;SDS011;31563;51.744;8.252;2023-04-20T07:45:25;3.20;;;1.92;;
45842;SDS011;31563;51.744;8.252;2023-04-20T07:47:53;4.07;;;1.98;;
45842;SDS011;31563;51.744;8.252;2023-04-20T07:50:22;2.72;;;2.08;;
45842;SDS011;31563;51.744;8.252;2023-04-20T07:52:51;4.80;;;2.15;;
45842;SDS011;31563;51.744;8.252;2023-04-20T07:55:19;2.80;;;1.77;;
45842;SDS011;31563;51.744;8.252;2023-04-20T07:57:47;3.60;;;2.05;;
45842;SDS011;31563;51.744;8.252;2023-04-20T08:00:16;4.57;;;2.03;;
45842;SDS011;31563;51.744;8.252;2023-04-20T08:02:46;3.50;;;1.85;;
45842;SDS011;31563;51.744;8.252;2023-04-20T08:05:14;3.22;;;2.40;;
45842;SDS011;31563;51.744;8.252;2023-04-20T08:07:43;4.95;;;2.25;;
45842;SDS011;31563;51.744;8.252;2023-04-20T08:10:11;2.90;;;2.00;;
45842;SDS011;31563;51.744;8.252;2023-04-20T08:12:39;3.42;;;2.25;;
45842;SDS011;31563;51.744;8.252;2023-04-20T08:15:08;5.45;;;1.63;;
45842;SDS011;31563;51.744;8.252;2023-04-20T08:17:37;2.78;;;1.80;;
45842;SDS011;31563;51.744;8.252;2023-04-20T08:20:07;3.10;;;1.80;;
45842;SDS011;31563;51.744;8.252;2023-04-20T08:22:36;4.68;;;2.10;;
45842;SDS011;31563;51.744;8.252;2023-04-20T08:25:04;3.85;;;2.00;;
45842;SDS011;31563;51.744;8.252;2023-04-20T08:27:33;4.70;;;1.80;;
45842;SDS011;31563;51.744;8.252;2023-04-20T08:30:01;2.60;;;1.70;;
45842;SDS011;31563;51.744;8.252;2023-04-20T08:32:30;2.90;;;1.83;;
45842;SDS011;31563;51.744;8.252;2023-04-20T08:34:58;3.78;;;1.88;;
45842;SDS011;31563;51.744;8.252;2023-04-20T08:37:28;3.42;;;1.65;;
45842;SDS011;31563;51.744;8.252;2023-04-20T08:39:58;3.30;;;1.67;;
45842;SDS011;31563;51.744;8.252;2023-04-20T08:42:26;2.50;;;1.50;;
45842;SDS011;31563;51.744;8.252;2023-04-20T08:44:54;2.30;;;1.70;;
45842;SDS011;31563;51.744;8.252;2023-04-20T08:47:23;2.17;;;1.70;;
45842;SDS011;31563;51.744;8.252;2023-04-20T08:49:54;3.72;;;1.52;;
45842;SDS011;31563;51.744;8.252;2023-04-20T08:52:23;2.70;;;1.60;;
45842;SDS011;31563;51.744;8.252;2023-04-20T08:54:52;2.03;;;1.63;;
45842;SDS011;31563;51.744;8.252;2023-04-20T08:57:22;3.78;;;1.95;;
45842;SDS011;31563;51.744;8.252;2023-04-20T08:59:51;4.20;;;1.55;;
45842;SDS011;31563;51.744;8.252;2023-04-20T09:02:19;2.13;;;1.50;;
45842;SDS011;31563;51.744;8.252;2023-04-20T09:04:59;3.03;;;1.75;;
45842;SDS011;31563;51.744;8.252;2023-04-20T09:07:28;3.77;;;2.10;;
45842;SDS011;31563;51.744;8.252;2023-04-20T09:09:58;1.95;;;1.30;;
45842;SDS011;31563;51.744;8.252;2023-04-20T09:12:27;2.08;;;1.80;;
45842;SDS011;31563;51.744;8.252;2023-04-20T09:15:07;1.73;;;1.42;;
45842;SDS011;31563;51.744;8.252;2023-04-20T09:17:36;3.00;;;1.85;;
45842;SDS011;31563;51.744;8.252;2023-04-20T09:20:06;3.05;;;1.80;;
45842;SDS011;31563;51.744;8.252;2023-04-20T09:22:36;2.85;;;1.83;;
45842;SDS011;31563;51.744;8.252;2023-04-20T09:25:12;2.40;;;1.42;;
45842;SDS011;31563;51.744;8.252;2023-04-20T09:27:41;2.20;;;1.58;;
45842;SDS011;31563;51.744;8.252;2023-04-20T09:30:09;2.47;;;1.58;;
45842;SDS011;31563;51.744;8.252;2023-04-20T09:32:38;3.10;;;1.40;;
45842;SDS011;31563;51.744;8.252;2023-04-20T09:35:06;2.35;;;1.25;;
45842;SDS011;31563;51.744;8.252;2023-04-20T09:37:45;4.10;;;1.90;;
45842;SDS011;31563;51.744;8.252;2023-04-20T09:40:15;2.78;;;1.48;;
45842;SDS011;31563;51.744;8.252;2023-04-20T09:42:47;2.47;;;1.55;;
45842;SDS011;31563;51.744;8.252;2023-04-20T09:45:16;2.97;;;1.57;;
45842;SDS011;31563;51.744;8.252;2023-04-20T09:47:44;2.67;;;2.15;;
45842;SDS011;31563;51.744;8.252;2023-04-20T09:50:15;2.85;;;1.33;;
45842;SDS011;31563;51.744;8.252;2023-04-20T09:52:57;4.05;;;1.63;;
45842;SDS011;31563;51.744;8.252;2023-04-20T09:57:57;1.58;;;1.38;;
45842;SDS011;31563;51.744;8.252;2023-04-20T10:00:28;3.60;;;1.50;;
45842;SDS011;31563;51.744;8.252;2023-04-20T10:02:56;3.55;;;1.40;;
45842;SDS011;31563;51.744;8.252;2023-04-20T10:05:31;2.35;;;1.10;;
45842;SDS011;31563;51.744;8.252;2023-04-20T10:08:01;2.25;;;1.48;;
45842;SDS011;31563;51.744;8.252;2023-04-20T10:10:41;2.83;;;1.33;;
45842;SDS011;31563;51.744;8.252;2023-04-20T10:13:10;2.80;;;1.60;;
45842;SDS011;31563;51.744;8.252;2023-04-20T10:15:39;1.90;;;1.45;;
45842;SDS011;31563;51.744;8.252;2023-04-20T10:18:15;2.63;;;1.35;;
45842;SDS011;31563;51.744;8.252;2023-04-20T10:20:44;2.80;;;1.70;;
45842;SDS011;31563;51.744;8.252;2023-04-20T10:23:13;2.10;;;1.67;;
45842;SDS011;31563;51.744;8.252;2023-04-20T10:25:55;4.82;;;2.20;;
45842;SDS011;31563;51.744;8.252;2023-04-20T10:28:24;1.88;;;1.02;;
45842;SDS011;31563;51.744;8.252;2023-04-20T10:30:52;2.95;;;1.27;;
45842;SDS011;31563;51.744;8.252;2023-04-20T10:33:21;2.35;;;1.65;;
45842;SDS011;31563;51.744;8.252;2023-04-20T10:35:50;3.50;;;1.95;;
45842;SDS011;31563;51.744;8.252;2023-04-20T10:38:27;2.95;;;2.00;;
45842;SDS011;31563;51.744;8.252;2023-04-20T10:40:58;3.08;;;2.10;;
45842;SDS011;31563;51.744;8.252;2023-04-20T10:43:32;3.95;;;2.13;;
45842;SDS011;31563;51.744;8.252;2023-04-20T10:46:11;3.53;;;2.28;;
45842;SDS011;31563;51.744;8.252;2023-04-20T10:48:48;4.55;;;1.90;;
45842;SDS011;31563;51.744;8.252;2023-04-20T10:51:17;2.58;;;1.92;;
45842;SDS011;31563;51.744;8.252;2023-04-20T10:53:56;2.40;;;1.80;;
45842;SDS011;31563;51.744;8.252;2023-04-20T10:56:26;3.05;;;1.58;;
45842;SDS011;31563;51.744;8.252;2023-04-20T10:59:04;4.47;;;1.60;;
45842;SDS011;31563;51.744;8.252;2023-04-20T11:01:33;2.95;;;1.77;;
45842;SDS011;31563;51.744;8.252;2023-04-20T11:04:01;3.50;;;1.50;;
45842;SDS011;31563;51.744;8.252;2023-04-20T11:06:29;4.40;;;1.60;;
45842;SDS011;31563;51.744;8.252;2023-04-20T11:08:58;2.75;;;1.50;;
45842;SDS011;31563;51.744;8.252;2023-04-20T11:11:27;4.97;;;1.52;;
45842;SDS011;31563;51.744;8.252;2023-04-20T11:14:04;5.32;;;2.08;;
45842;SDS011;31563;51.744;8.252;2023-04-20T11:16:34;5.15;;;2.90;;
45842;SDS011;31563;51.744;8.252;2023-04-20T11:19:21;4.75;;;2.75;;
45842;SDS011;31563;51.744;8.252;2023-04-20T11:21:50;3.65;;;2.00;;
45842;SDS011;31563;51.744;8.252;2023-04-20T11:24:18;4.97;;;2.13;;
45842;SDS011;31563;51.744;8.252;2023-04-20T11:26:48;3.38;;;1.58;;
45842;SDS011;31563;51.744;8.252;2023-04-20T11:29:28;2.88;;;1.52;;
45842;SDS011;31563;51.744;8.252;2023-04-20T11:34:26;3.97;;;1.20;;
45842;SDS011;31563;51.744;8.252;2023-04-20T11:36:55;1.23;;;0.97;;
45842;SDS011;31563;51.744;8.252;2023-04-20T11:39:25;2.95;;;1.02;;
45842;SDS011;31563;51.744;8.252;2023-04-20T11:41:56;2.10;;;1.10;;
45842;SDS011;31563;51.744;8.252;2023-04-20T11:44:24;1.80;;;1.08;;
45842;SDS011;31563;51.744;8.252;2023-04-20T11:46:53;1.97;;;1.03;;
45842;SDS011;31563;51.744;8.252;2023-04-20T11:49:22;2.15;;;0.90;;
45842;SDS011;31563;51.744;8.252;2023-04-20T11:51:52;1.35;;;0.85;;
45842;SDS011;31563;51.744;8.252;2023-04-20T11:54:20;2.20;;;1.30;;
45842;SDS011;31563;51.744;8.252;2023-04-20T11:56:50;1.92;;;1.10;;
45842;SDS011;31563;51.744;8.252;2023-04-20T11:59:20;1.00;;;0.90;;
45842;SDS011;31563;51.744;8.252;2023-04-20T12:01:48;1.58;;;0.80;;
45842;SDS011;31563;51.744;8.252;2023-04-20T12:04:17;1.60;;;0.98;;
45842;SDS011;31563;51.744;8.252;2023-04-20T12:06:46;1.85;;;1.02;;
45842;SDS011;31563;51.744;8.252;2023-04-20T12:09:14;1.95;;;1.10;;
45842;SDS011;31563;51.744;8.252;2023-04-20T12:11:43;0.95;;;0.77;;
45842;SDS011;31563;51.744;8.252;2023-04-20T12:14:11;1.20;;;1.10;;
45842;SDS011;31563;51.744;8.252;2023-04-20T12:16:40;2.05;;;1.08;;
45842;SDS011;31563;51.744;8.252;2023-04-20T12:19:08;3.58;;;1.17;;
45842;SDS011;31563;51.744;8.252;2023-04-20T12:21:37;1.02;;;0.93;;
45842;SDS011;31563;51.744;8.252;2023-04-20T12:24:05;3.50;;;1.27;;
45842;SDS011;31563;51.744;8.252;2023-04-20T12:26:33;2.92;;;1.38;;
45842;SDS011;31563;51.744;8.252;2023-04-20T12:29:06;5.45;;;1.25;;
45842;SDS011;31563;51.744;8.252;2023-04-20T12:31:34;2.03;;;1.13;;
45842;SDS011;31563;51.744;8.252;2023-04-20T12:34:04;2.70;;;1.20;;
45842;SDS011;31563;51.744;8.252;2023-04-20T12:36:32;2.70;;;1.25;;
45842;SDS011;31563;51.744;8.252;2023-04-20T12:39:01;2.30;;;1.40;;
45842;SDS011;31563;51.744;8.252;2023-04-20T12:41:30;2.10;;;1.20;;
45842;SDS011;31563;51.744;8.252;2023-04-20T12:46:31;1.20;;;0.93;;
45842;SDS011;31563;51.744;8.252;2023-04-20T12:48:59;1.98;;;1.00;;
45842;SDS011;31563;51.744;8.252;2023-04-20T12:51:30;1.65;;;1.17;;
45842;SDS011;31563;51.744;8.252;2023-04-20T12:53:58;2.85;;;1.00;;
45842;SDS011;31563;51.744;8.252;2023-04-20T12:56:26;2.85;;;1.30;;
45842;SDS011;31563;51.744;8.252;2023-04-20T12:58:54;2.15;;;1.17;;
45842;SDS011;31563;51.744;8.252;2023-04-20T13:01:22;1.98;;;1.00;;
45842;SDS011;31563;51.744;8.252;2023-04-20T13:03:50;2.73;;;0.90;;
45842;SDS011;31563;51.744;8.252;2023-04-20T13:06:19;1.80;;;0.93;;
45842;SDS011;31563;51.744;8.252;2023-04-20T13:08:49;4.22;;;1.30;;
45842;SDS011;31563;51.744;8.252;2023-04-20T13:11:17;2.63;;;1.30;;
45842;SDS011;31563;51.744;8.252;2023-04-20T13:13:45;3.67;;;1.30;;
45842;SDS011;31563;51.744;8.252;2023-04-20T13:16:13;3.22;;;1.40;;
45842;SDS011;31563;51.744;8.252;2023-04-20T13:18:41;4.80;;;1.42;;
45842;SDS011;31563;51.744;8.252;2023-04-20T13:21:09;1.38;;;1.08;;
45842;SDS011;31563;51.744;8.252;2023-04-20T13:23:37;5.22;;;1.48;;
45842;SDS011;31563;51.744;8.252;2023-04-20T13:26:07;2.08;;;1.73;;
45842;SDS011;31563;51.744;8.252;2023-04-20T13:28:35;2.53;;;1.02;;
45842;SDS011;31563;51.744;8.252;2023-04-20T13:31:04;4.43;;;1.73;;
45842;SDS011;31563;51.744;8.252;2023-04-20T13:33:32;1.45;;;1.15;;
45842;SDS011;31563;51.744;8.252;2023-04-20T13:36:01;1.73;;;1.20;;
45842;SDS011;31563;51.744;8.252;2023-04-20T13:38:29;2.13;;;1.38;;
45842;SDS011;31563;51.744;8.252;2023-04-20T13:40:57;4.32;;;1.33;;
45842;SDS011;31563;51.744;8.252;2023-04-20T13:43:27;3.38;;;1.40;;
45842;SDS011;31563;51.744;8.252;2023-04-20T13:45:55;2.92;;;1.20;;
45842;SDS011;31563;51.744;8.252;2023-04-20T13:48:23;2.47;;;1.10;;
45842;SDS011;31563;51.744;8.252;2023-04-20T13:50:51;3.53;;;1.27;;
45842;SDS011;31563;51.744;8.252;2023-04-20T13:53:20;1.75;;;1.33;;
45842;SDS011;31563;51.744;8.252;2023-04-20T13:55:48;2.75;;;1.33;;
45842;SDS011;31563;51.744;8.252;2023-04-20T13:58:16;3.97;;;1.70;;
45842;SDS011;31563;51.744;8.252;2023-04-20T14:00:45;2.40;;;1.38;;
45842;SDS011;31563;51.744;8.252;2023-04-20T14:05:44;2.58;;;1.60;;
45842;SDS011;31563;51.744;8.252;2023-04-20T14:08:12;2.42;;;1.30;;
45842;SDS011;31563;51.744;8.252;2023-04-20T14:10:40;2.60;;;1.25;;
45842;SDS011;31563;51.744;8.252;2023-04-20T14:13:08;3.35;;;1.70;;
45842;SDS011;31563;51.744;8.252;2023-04-20T14:15:36;2.35;;;1.10;;
45842;SDS011;31563;51.744;8.252;2023-04-20T14:18:06;4.03;;;1.40;;
45842;SDS011;31563;51.744;8.252;2023-04-20T14:20:34;2.20;;;1.27;;
45842;SDS011;31563;51.744;8.252;2023-04-20T14:23:02;3.60;;;1.70;;
45842;SDS011;31563;51.744;8.252;2023-04-20T14:25:34;7.32;;;1.60;;
45842;SDS011;31563;51.744;8.252;2023-04-20T14:28:02;6.38;;;1.50;;
45842;SDS011;31563;51.744;8.252;2023-04-20T14:30:31;7.82;;;1.40;;
45842;SDS011;31563;51.744;8.252;2023-04-20T14:32:59;4.63;;;1.30;;
45842;SDS011;31563;51.744;8.252;2023-04-20T14:35:30;4.97;;;1.30;;
45842;SDS011;31563;51.744;8.252;2023-04-20T14:40:26;4.78;;;1.65;;
45842;SDS011;31563;51.744;8.252;2023-04-20T14:42:54;4.43;;;1.10;;
45842;SDS011;31563;51.744;8.252;2023-04-20T14:45:22;3.92;;;1.10;;
45842;SDS011;31563;51.744;8.252;2023-04-20T14:47:51;2.97;;;1.30;;
45842;SDS011;31563;51.744;8.252;2023-04-20T14:52:52;2.22;;;0.93;;
45842;SDS011;31563;51.744;8.252;2023-04-20T14:55:21;3.22;;;0.98;;
45842;SDS011;31563;51.744;8.252;2023-04-20T14:57:53;2.65;;;1.00;;
45842;SDS011;31563;51.744;8.252;2023-04-20T15:00:22;6.70;;;1.92;;
45842;SDS011;31563;51.744;8.252;2023-04-20T15:02:53;5.38;;;1.25;;
45842;SDS011;31563;51.744;8.252;2023-04-20T15:05:22;6.45;;;1.70;;
45842;SDS011;31563;51.744;8.252;2023-04-20T15:07:52;4.20;;;1.57;;
45842;SDS011;31563;51.744;8.252;2023-04-20T15:10:20;4.32;;;1.50;;
45842;SDS011;31563;51.744;8.252;2023-04-20T15:12:49;6.28;;;1.65;;
45842;SDS011;31563;51.744;8.252;2023-04-20T15:15:17;6.15;;;1.50;;
45842;SDS011;31563;51.744;8.252;2023-04-20T15:17:45;6.03;;;1.42;;
45842;SDS011;31563;51.744;8.252;2023-04-20T15:20:13;2.90;;;1.10;;
45842;SDS011;31563;51.744;8.252;2023-04-20T15:22:42;6.37;;;1.53;;